sensor_id;sensor_type;location;lat;lon;timestamp;P1;durP1;ratioP1;P2;durP2;ratioP2
40503;SDS011;42292;49.048;8.374;2022-07-23T00:00:41;9.32;;;8.38;;
40503;SDS011;42292;49.048;8.374;2022-07-23T00:03:12;9.02;;;8.18;;
40503;SDS011;42292;49.048;8.374;2022-07-23T00:05:38;10.55;;;8.20;;
40503;SDS011;42292;49.048;8.374;2022-07-23T00:08:04;8.82;;;7.53;;
40503;SDS011;42292;49.048;8.374;2022-07-23T00:10:30;10.43;;;8.57;;
40503;SDS011;42292;49.048;8.374;2022-07-23T00:12:58;10.40;;;8.40;;
40503;SDS011;42292;49.048;8.374;2022-07-23T00:15:24;9.87;;;7.70;;
40503;SDS011;42292;49.048;8.374;2022-07-23T00:17:50;9.00;;;8.10;;
40503;SDS011;42292;49.048;8.374;2022-07-23T00:20:20;9.52;;;8.10;;
40503;SDS011;42292;49.048;8.374;2022-07-23T00:22:50;10.18;;;7.65;;
40503;SDS011;42292;49.048;8.374;2022-07-23T00:25:16;7.93;;;7.13;;
40503;SDS011;42292;49.048;8.374;2022-07-23T00:27:42;8.13;;;7.35;;
40503;SDS011;42292;49.048;8.374;2022-07-23T00:30:10;7.68;;;6.88;;
40503;SDS011;42292;49.048;8.374;2022-07-23T00:32:46;8.55;;;7.75;;
40503;SDS011;42292;49.048;8.374;2022-07-23T00:35:21;8.93;;;7.97;;
40503;SDS011;42292;49.048;8.374;2022-07-23T00:37:48;9.20;;;7.43;;
40503;SDS011;42292;49.048;8.374;2022-07-23T00:40:16;9.02;;;8.10;;
40503;SDS011;42292;49.048;8.374;2022-07-23T00:42:44;9.53;;;8.40;;
40503;SDS011;42292;49.048;8.374;2022-07-23T00:45:12;8.48;;;7.45;;
40503;SDS011;42292;49.048;8.374;2022-07-23T00:47:43;8.85;;;8.00;;
40503;SDS011;42292;49.048;8.374;2022-07-23T00:50:12;8.52;;;7.72;;
40503;SDS011;42292;49.048;8.374;2022-07-23T00:52:42;8.25;;;7.45;;
40503;SDS011;42292;49.048;8.374;2022-07-23T00:55:09;10.13;;;8.00;;
40503;SDS011;42292;49.048;8.374;2022-07-23T00:57:40;9.85;;;8.15;;
40503;SDS011;42292;49.048;8.374;2022-07-23T01:00:07;8.87;;;7.70;;
40503;SDS011;42292;49.048;8.374;2022-07-23T01:02:36;8.68;;;7.68;;
40503;SDS011;42292;49.048;8.374;2022-07-23T01:05:02;9.77;;;7.85;;
40503;SDS011;42292;49.048;8.374;2022-07-23T01:07:28;8.80;;;7.90;;
40503;SDS011;42292;49.048;8.374;2022-07-23T01:09:54;8.55;;;7.75;;
40503;SDS011;42292;49.048;8.374;2022-07-23T01:12:20;9.35;;;8.43;;
40503;SDS011;42292;49.048;8.374;2022-07-23T01:14:55;8.80;;;7.97;;
40503;SDS011;42292;49.048;8.374;2022-07-23T01:17:24;9.40;;;7.90;;
40503;SDS011;42292;49.048;8.374;2022-07-23T01:19:50;9.18;;;7.72;;
40503;SDS011;42292;49.048;8.374;2022-07-23T01:22:19;10.50;;;7.53;;
40503;SDS011;42292;49.048;8.374;2022-07-23T01:24:45;9.20;;;7.55;;
40503;SDS011;42292;49.048;8.374;2022-07-23T01:27:11;8.38;;;7.57;;
40503;SDS011;42292;49.048;8.374;2022-07-23T01:29:37;9.15;;;8.15;;
40503;SDS011;42292;49.048;8.374;2022-07-23T01:32:03;8.82;;;7.93;;
40503;SDS011;42292;49.048;8.374;2022-07-23T01:34:32;8.80;;;7.70;;
40503;SDS011;42292;49.048;8.374;2022-07-23T01:37:00;8.80;;;8.00;;
40503;SDS011;42292;49.048;8.374;2022-07-23T01:39:27;10.20;;;7.78;;
40503;SDS011;42292;49.048;8.374;2022-07-23T01:41:55;10.52;;;9.05;;
40503;SDS011;42292;49.048;8.374;2022-07-23T01:44:21;9.27;;;8.37;;
40503;SDS011;42292;49.048;8.374;2022-07-23T01:46:46;12.77;;;8.30;;
40503;SDS011;42292;49.048;8.374;2022-07-23T01:49:14;8.45;;;7.65;;
40503;SDS011;42292;49.048;8.374;2022-07-23T01:51:42;11.53;;;8.00;;
40503;SDS011;42292;49.048;8.374;2022-07-23T01:54:24;8.13;;;7.43;;
40503;SDS011;42292;49.048;8.374;2022-07-23T01:56:55;8.38;;;7.57;;
40503;SDS011;42292;49.048;8.374;2022-07-23T01:59:21;8.73;;;7.63;;
40503;SDS011;42292;49.048;8.374;2022-07-23T02:01:47;8.60;;;7.80;;
40503;SDS011;42292;49.048;8.374;2022-07-23T02:04:17;8.30;;;7.40;;
40503;SDS011;42292;49.048;8.374;2022-07-23T02:06:46;8.20;;;7.47;;
40503;SDS011;42292;49.048;8.374;2022-07-23T02:09:15;7.57;;;6.87;;
40503;SDS011;42292;49.048;8.374;2022-07-23T02:11:41;8.15;;;7.22;;
40503;SDS011;42292;49.048;8.374;2022-07-23T02:14:07;7.57;;;6.83;;
40503;SDS011;42292;49.048;8.374;2022-07-23T02:16:35;9.10;;;7.72;;
40503;SDS011;42292;49.048;8.374;2022-07-23T02:19:05;9.02;;;7.80;;
40503;SDS011;42292;49.048;8.374;2022-07-23T02:21:36;8.25;;;7.45;;
40503;SDS011;42292;49.048;8.374;2022-07-23T02:24:01;8.52;;;7.70;;
40503;SDS011;42292;49.048;8.374;2022-07-23T02:26:27;10.05;;;8.07;;
40503;SDS011;42292;49.048;8.374;2022-07-23T02:28:53;9.70;;;7.77;;
40503;SDS011;42292;49.048;8.374;2022-07-23T02:31:20;8.17;;;7.30;;
40503;SDS011;42292;49.048;8.374;2022-07-23T02:33:46;7.90;;;7.10;;
40503;SDS011;42292;49.048;8.374;2022-07-23T02:36:12;8.23;;;7.43;;
40503;SDS011;42292;49.048;8.374;2022-07-23T02:38:37;8.43;;;7.63;;
40503;SDS011;42292;49.048;8.374;2022-07-23T02:41:03;8.60;;;7.70;;
40503;SDS011;42292;49.048;8.374;2022-07-23T02:43:28;8.05;;;7.35;;
40503;SDS011;42292;49.048;8.374;2022-07-23T02:45:56;8.13;;;7.32;;
40503;SDS011;42292;49.048;8.374;2022-07-23T02:48:25;8.73;;;7.32;;
40503;SDS011;42292;49.048;8.374;2022-07-23T02:50:53;9.55;;;7.20;;
40503;SDS011;42292;49.048;8.374;2022-07-23T02:53:22;8.18;;;7.38;;
40503;SDS011;42292;49.048;8.374;2022-07-23T02:55:48;9.23;;;6.82;;
40503;SDS011;42292;49.048;8.374;2022-07-23T02:58:14;7.73;;;6.93;;
40503;SDS011;42292;49.048;8.374;2022-07-23T03:00:42;7.70;;;6.72;;
40503;SDS011;42292;49.048;8.374;2022-07-23T03:03:07;9.07;;;6.37;;
40503;SDS011;42292;49.048;8.374;2022-07-23T03:05:33;7.30;;;6.47;;
40503;SDS011;42292;49.048;8.374;2022-07-23T03:08:01;6.97;;;6.28;;
40503;SDS011;42292;49.048;8.374;2022-07-23T03:10:27;7.82;;;6.32;;
40503;SDS011;42292;49.048;8.374;2022-07-23T03:12:55;7.78;;;6.13;;
40503;SDS011;42292;49.048;8.374;2022-07-23T03:15:23;7.40;;;5.88;;
40503;SDS011;42292;49.048;8.374;2022-07-23T03:17:50;8.32;;;5.75;;
40503;SDS011;42292;49.048;8.374;2022-07-23T03:20:18;6.53;;;5.30;;
40503;SDS011;42292;49.048;8.374;2022-07-23T03:22:44;8.23;;;5.40;;
40503;SDS011;42292;49.048;8.374;2022-07-23T03:25:10;8.10;;;5.78;;
40503;SDS011;42292;49.048;8.374;2022-07-23T03:27:35;6.73;;;5.50;;
40503;SDS011;42292;49.048;8.374;2022-07-23T03:30:03;7.23;;;5.43;;
40503;SDS011;42292;49.048;8.374;2022-07-23T03:32:30;6.03;;;5.05;;
40503;SDS011;42292;49.048;8.374;2022-07-23T03:34:56;6.70;;;5.70;;
40503;SDS011;42292;49.048;8.374;2022-07-23T03:37:22;5.85;;;5.25;;
40503;SDS011;42292;49.048;8.374;2022-07-23T03:39:50;6.35;;;5.50;;
40503;SDS011;42292;49.048;8.374;2022-07-23T03:42:21;6.30;;;5.38;;
40503;SDS011;42292;49.048;8.374;2022-07-23T03:44:46;6.65;;;5.43;;
40503;SDS011;42292;49.048;8.374;2022-07-23T03:47:12;6.13;;;4.73;;
40503;SDS011;42292;49.048;8.374;2022-07-23T03:49:41;6.70;;;5.47;;
40503;SDS011;42292;49.048;8.374;2022-07-23T03:52:09;5.53;;;4.93;;
40503;SDS011;42292;49.048;8.374;2022-07-23T03:54:37;5.67;;;5.17;;
40503;SDS011;42292;49.048;8.374;2022-07-23T03:57:08;5.95;;;5.20;;
40503;SDS011;42292;49.048;8.374;2022-07-23T03:59:33;7.20;;;5.33;;
40503;SDS011;42292;49.048;8.374;2022-07-23T04:02:03;6.85;;;5.30;;
40503;SDS011;42292;49.048;8.374;2022-07-23T04:04:29;6.10;;;5.50;;
40503;SDS011;42292;49.048;8.374;2022-07-23T04:06:57;5.68;;;4.82;;
40503;SDS011;42292;49.048;8.374;2022-07-23T04:09:25;6.95;;;5.43;;
40503;SDS011;42292;49.048;8.374;2022-07-23T04:11:50;6.85;;;5.03;;
40503;SDS011;42292;49.048;8.374;2022-07-23T04:14:21;5.90;;;5.30;;
40503;SDS011;42292;49.048;8.374;2022-07-23T04:16:51;7.45;;;5.60;;
40503;SDS011;42292;49.048;8.374;2022-07-23T04:19:16;13.43;;;6.05;;
40503;SDS011;42292;49.048;8.374;2022-07-23T04:21:42;11.65;;;6.63;;
40503;SDS011;42292;49.048;8.374;2022-07-23T04:24:08;7.72;;;6.28;;
40503;SDS011;42292;49.048;8.374;2022-07-23T04:26:35;8.57;;;6.13;;
40503;SDS011;42292;49.048;8.374;2022-07-23T04:29:01;7.68;;;6.07;;
40503;SDS011;42292;49.048;8.374;2022-07-23T04:31:31;6.90;;;6.20;;
40503;SDS011;42292;49.048;8.374;2022-07-23T04:33:59;7.10;;;6.30;;
40503;SDS011;42292;49.048;8.374;2022-07-23T04:36:27;8.23;;;6.78;;
40503;SDS011;42292;49.048;8.374;2022-07-23T04:38:53;8.32;;;6.50;;
40503;SDS011;42292;49.048;8.374;2022-07-23T04:41:23;8.35;;;6.13;;
40503;SDS011;42292;49.048;8.374;2022-07-23T04:43:49;8.18;;;6.60;;
40503;SDS011;42292;49.048;8.374;2022-07-23T04:46:14;8.73;;;6.80;;
40503;SDS011;42292;49.048;8.374;2022-07-23T04:48:45;8.20;;;6.82;;
40503;SDS011;42292;49.048;8.374;2022-07-23T04:51:10;8.75;;;6.88;;
40503;SDS011;42292;49.048;8.374;2022-07-23T04:53:38;7.88;;;6.63;;
40503;SDS011;42292;49.048;8.374;2022-07-23T04:56:04;8.75;;;7.30;;
40503;SDS011;42292;49.048;8.374;2022-07-23T04:58:32;9.18;;;7.47;;
40503;SDS011;42292;49.048;8.374;2022-07-23T05:01:00;9.45;;;7.03;;
40503;SDS011;42292;49.048;8.374;2022-07-23T05:03:26;7.50;;;6.70;;
40503;SDS011;42292;49.048;8.374;2022-07-23T05:05:52;9.80;;;7.33;;
40503;SDS011;42292;49.048;8.374;2022-07-23T05:08:18;8.57;;;6.80;;
40503;SDS011;42292;49.048;8.374;2022-07-23T05:10:43;7.57;;;6.67;;
40503;SDS011;42292;49.048;8.374;2022-07-23T05:13:09;8.83;;;7.13;;
40503;SDS011;42292;49.048;8.374;2022-07-23T05:15:37;9.20;;;6.83;;
40503;SDS011;42292;49.048;8.374;2022-07-23T05:18:02;9.97;;;6.90;;
40503;SDS011;42292;49.048;8.374;2022-07-23T05:20:28;9.00;;;7.90;;
40503;SDS011;42292;49.048;8.374;2022-07-23T05:22:54;8.17;;;7.37;;
40503;SDS011;42292;49.048;8.374;2022-07-23T05:25:22;11.13;;;7.25;;
40503;SDS011;42292;49.048;8.374;2022-07-23T05:27:49;7.65;;;6.90;;
40503;SDS011;42292;49.048;8.374;2022-07-23T05:30:17;8.85;;;8.05;;
40503;SDS011;42292;49.048;8.374;2022-07-23T05:32:45;10.63;;;7.88;;
40503;SDS011;42292;49.048;8.374;2022-07-23T05:35:11;8.35;;;7.10;;
40503;SDS011;42292;49.048;8.374;2022-07-23T05:37:37;8.97;;;7.73;;
40503;SDS011;42292;49.048;8.374;2022-07-23T05:40:05;7.73;;;7.03;;
40503;SDS011;42292;49.048;8.374;2022-07-23T05:42:37;8.60;;;7.35;;
40503;SDS011;42292;49.048;8.374;2022-07-23T05:45:06;9.00;;;7.45;;
40503;SDS011;42292;49.048;8.374;2022-07-23T05:47:46;8.18;;;7.38;;
40503;SDS011;42292;49.048;8.374;2022-07-23T05:50:12;8.35;;;6.95;;
40503;SDS011;42292;49.048;8.374;2022-07-23T05:52:39;8.80;;;7.15;;
40503;SDS011;42292;49.048;8.374;2022-07-23T05:55:05;12.13;;;7.50;;
40503;SDS011;42292;49.048;8.374;2022-07-23T05:57:32;9.27;;;7.78;;
40503;SDS011;42292;49.048;8.374;2022-07-23T05:59:57;8.65;;;7.85;;
40503;SDS011;42292;49.048;8.374;2022-07-23T06:02:23;10.10;;;7.53;;
40503;SDS011;42292;49.048;8.374;2022-07-23T06:04:49;8.65;;;6.93;;
40503;SDS011;42292;49.048;8.374;2022-07-23T06:07:14;9.90;;;8.10;;
40503;SDS011;42292;49.048;8.374;2022-07-23T06:09:40;9.57;;;7.45;;
40503;SDS011;42292;49.048;8.374;2022-07-23T06:12:06;8.03;;;7.23;;
40503;SDS011;42292;49.048;8.374;2022-07-23T06:14:32;10.10;;;7.10;;
40503;SDS011;42292;49.048;8.374;2022-07-23T06:16:57;10.82;;;7.43;;
40503;SDS011;42292;49.048;8.374;2022-07-23T06:19:25;9.70;;;7.70;;
40503;SDS011;42292;49.048;8.374;2022-07-23T06:21:51;9.65;;;7.57;;
40503;SDS011;42292;49.048;8.374;2022-07-23T06:24:16;7.57;;;6.83;;
40503;SDS011;42292;49.048;8.374;2022-07-23T06:26:44;11.57;;;8.00;;
40503;SDS011;42292;49.048;8.374;2022-07-23T06:29:10;9.77;;;8.03;;
40503;SDS011;42292;49.048;8.374;2022-07-23T06:31:38;9.65;;;8.20;;
40503;SDS011;42292;49.048;8.374;2022-07-23T06:34:06;10.23;;;7.82;;
40503;SDS011;42292;49.048;8.374;2022-07-23T06:36:34;7.85;;;6.95;;
40503;SDS011;42292;49.048;8.374;2022-07-23T06:39:02;8.65;;;6.90;;
40503;SDS011;42292;49.048;8.374;2022-07-23T06:41:27;7.70;;;6.95;;
40503;SDS011;42292;49.048;8.374;2022-07-23T06:43:56;8.10;;;6.93;;
40503;SDS011;42292;49.048;8.374;2022-07-23T06:46:23;9.15;;;7.68;;
40503;SDS011;42292;49.048;8.374;2022-07-23T06:48:50;10.00;;;7.40;;
40503;SDS011;42292;49.048;8.374;2022-07-23T06:51:20;7.80;;;7.00;;
40503;SDS011;42292;49.048;8.374;2022-07-23T06:53:48;8.57;;;7.03;;
40503;SDS011;42292;49.048;8.374;2022-07-23T06:56:16;8.13;;;7.30;;
40503;SDS011;42292;49.048;8.374;2022-07-23T06:58:42;7.97;;;7.20;;
40503;SDS011;42292;49.048;8.374;2022-07-23T07:01:08;9.23;;;8.20;;
40503;SDS011;42292;49.048;8.374;2022-07-23T07:03:33;8.15;;;7.18;;
40503;SDS011;42292;49.048;8.374;2022-07-23T07:06:01;8.97;;;6.97;;
40503;SDS011;42292;49.048;8.374;2022-07-23T07:08:28;8.60;;;6.50;;
40503;SDS011;42292;49.048;8.374;2022-07-23T07:10:55;11.07;;;7.38;;
40503;SDS011;42292;49.048;8.374;2022-07-23T07:13:21;8.43;;;6.10;;
40503;SDS011;42292;49.048;8.374;2022-07-23T07:15:49;8.53;;;6.20;;
40503;SDS011;42292;49.048;8.374;2022-07-23T07:18:17;7.70;;;6.00;;
40503;SDS011;42292;49.048;8.374;2022-07-23T07:20:45;7.82;;;6.03;;
40503;SDS011;42292;49.048;8.374;2022-07-23T07:23:10;6.78;;;6.07;;
40503;SDS011;42292;49.048;8.374;2022-07-23T07:25:39;7.53;;;6.07;;
40503;SDS011;42292;49.048;8.374;2022-07-23T07:28:07;8.47;;;6.30;;
40503;SDS011;42292;49.048;8.374;2022-07-23T07:30:33;7.38;;;6.03;;
40503;SDS011;42292;49.048;8.374;2022-07-23T07:32:59;6.78;;;6.18;;
40503;SDS011;42292;49.048;8.374;2022-07-23T07:35:27;8.10;;;6.47;;
40503;SDS011;42292;49.048;8.374;2022-07-23T07:37:52;7.63;;;6.30;;
40503;SDS011;42292;49.048;8.374;2022-07-23T07:40:18;7.07;;;6.03;;
40503;SDS011;42292;49.048;8.374;2022-07-23T07:42:47;7.22;;;6.53;;
40503;SDS011;42292;49.048;8.374;2022-07-23T07:45:19;6.60;;;6.00;;
40503;SDS011;42292;49.048;8.374;2022-07-23T07:47:46;7.82;;;6.18;;
40503;SDS011;42292;49.048;8.374;2022-07-23T07:50:16;7.00;;;6.30;;
40503;SDS011;42292;49.048;8.374;2022-07-23T07:52:41;7.05;;;5.95;;
40503;SDS011;42292;49.048;8.374;2022-07-23T07:55:10;8.77;;;5.97;;
40503;SDS011;42292;49.048;8.374;2022-07-23T07:57:36;7.00;;;6.33;;
40503;SDS011;42292;49.048;8.374;2022-07-23T08:00:05;11.65;;;6.93;;
40503;SDS011;42292;49.048;8.374;2022-07-23T08:05:25;8.02;;;6.25;;
40503;SDS011;42292;49.048;8.374;2022-07-23T08:07:52;7.13;;;6.40;;
40503;SDS011;42292;49.048;8.374;2022-07-23T08:10:20;7.50;;;6.73;;
40503;SDS011;42292;49.048;8.374;2022-07-23T08:12:49;7.38;;;6.57;;
40503;SDS011;42292;49.048;8.374;2022-07-23T08:15:20;7.40;;;6.75;;
40503;SDS011;42292;49.048;8.374;2022-07-23T08:17:49;6.77;;;5.80;;
40503;SDS011;42292;49.048;8.374;2022-07-23T08:20:20;7.32;;;6.43;;
40503;SDS011;42292;49.048;8.374;2022-07-23T08:22:53;7.43;;;6.70;;
40503;SDS011;42292;49.048;8.374;2022-07-23T08:25:20;7.97;;;6.50;;
40503;SDS011;42292;49.048;8.374;2022-07-23T08:27:47;7.22;;;6.53;;
40503;SDS011;42292;49.048;8.374;2022-07-23T08:30:14;9.60;;;6.72;;
40503;SDS011;42292;49.048;8.374;2022-07-23T08:32:53;8.43;;;6.60;;
40503;SDS011;42292;49.048;8.374;2022-07-23T08:35:49;7.50;;;6.13;;
40503;SDS011;42292;49.048;8.374;2022-07-23T08:38:21;6.93;;;6.23;;
40503;SDS011;42292;49.048;8.374;2022-07-23T08:40:54;6.68;;;5.97;;
40503;SDS011;42292;49.048;8.374;2022-07-23T08:43:23;7.65;;;6.75;;
40503;SDS011;42292;49.048;8.374;2022-07-23T08:45:54;7.45;;;6.43;;
40503;SDS011;42292;49.048;8.374;2022-07-23T08:48:24;8.40;;;6.38;;
40503;SDS011;42292;49.048;8.374;2022-07-23T08:50:54;7.65;;;6.93;;
40503;SDS011;42292;49.048;8.374;2022-07-23T08:53:25;7.65;;;6.85;;
40503;SDS011;42292;49.048;8.374;2022-07-23T08:55:57;8.75;;;7.30;;
40503;SDS011;42292;49.048;8.374;2022-07-23T08:58:24;8.52;;;7.22;;
40503;SDS011;42292;49.048;8.374;2022-07-23T09:00:50;8.30;;;7.50;;
40503;SDS011;42292;49.048;8.374;2022-07-23T09:03:17;8.97;;;7.23;;
40503;SDS011;42292;49.048;8.374;2022-07-23T09:05:51;8.30;;;7.47;;
40503;SDS011;42292;49.048;8.374;2022-07-23T09:08:24;9.05;;;7.65;;
40503;SDS011;42292;49.048;8.374;2022-07-23T09:10:55;9.90;;;8.90;;
40503;SDS011;42292;49.048;8.374;2022-07-23T09:16:13;9.57;;;8.68;;
40503;SDS011;42292;49.048;8.374;2022-07-23T09:31:34;10.40;;;9.03;;
40503;SDS011;42292;49.048;8.374;2022-07-23T09:34:09;10.40;;;9.45;;
40503;SDS011;42292;49.048;8.374;2022-07-23T09:36:42;9.60;;;8.70;;
40503;SDS011;42292;49.048;8.374;2022-07-23T09:39:11;10.43;;;9.35;;
40503;SDS011;42292;49.048;8.374;2022-07-23T09:41:47;11.18;;;8.85;;
40503;SDS011;42292;49.048;8.374;2022-07-23T09:44:14;10.13;;;9.13;;
40503;SDS011;42292;49.048;8.374;2022-07-23T09:46:44;10.82;;;9.82;;
40503;SDS011;42292;49.048;8.374;2022-07-23T09:49:19;10.30;;;9.32;;
40503;SDS011;42292;49.048;8.374;2022-07-23T09:57:05;9.25;;;8.38;;
40503;SDS011;42292;49.048;8.374;2022-07-23T09:59:38;9.40;;;8.40;;
40503;SDS011;42292;49.048;8.374;2022-07-23T10:02:08;9.20;;;8.23;;
40503;SDS011;42292;49.048;8.374;2022-07-23T10:04:37;10.05;;;9.05;;
40503;SDS011;42292;49.048;8.374;2022-07-23T10:07:04;8.83;;;7.93;;
40503;SDS011;42292;49.048;8.374;2022-07-23T10:09:40;8.48;;;7.68;;
40503;SDS011;42292;49.048;8.374;2022-07-23T10:12:11;8.60;;;7.70;;
40503;SDS011;42292;49.048;8.374;2022-07-23T10:14:57;9.03;;;8.13;;
40503;SDS011;42292;49.048;8.374;2022-07-23T10:17:29;9.38;;;8.10;;
40503;SDS011;42292;49.048;8.374;2022-07-23T10:19:55;8.13;;;7.43;;
40503;SDS011;42292;49.048;8.374;2022-07-23T10:22:25;7.87;;;7.17;;
40503;SDS011;42292;49.048;8.374;2022-07-23T10:30:06;8.27;;;7.32;;
40503;SDS011;42292;49.048;8.374;2022-07-23T10:35:48;7.30;;;6.70;;
40503;SDS011;42292;49.048;8.374;2022-07-23T10:41:12;6.90;;;6.28;;
40503;SDS011;42292;49.048;8.374;2022-07-23T10:43:38;7.23;;;6.63;;
40503;SDS011;42292;49.048;8.374;2022-07-23T10:46:22;7.57;;;6.43;;
40503;SDS011;42292;49.048;8.374;2022-07-23T10:54:42;7.70;;;6.97;;
40503;SDS011;42292;49.048;8.374;2022-07-23T10:57:14;9.25;;;7.13;;
40503;SDS011;42292;49.048;8.374;2022-07-23T11:02:29;7.35;;;6.70;;
40503;SDS011;42292;49.048;8.374;2022-07-23T11:04:59;8.60;;;7.20;;
40503;SDS011;42292;49.048;8.374;2022-07-23T11:07:33;7.87;;;7.10;;
40503;SDS011;42292;49.048;8.374;2022-07-23T11:10:00;7.88;;;7.15;;
40503;SDS011;42292;49.048;8.374;2022-07-23T11:25:11;7.90;;;7.10;;
40503;SDS011;42292;49.048;8.374;2022-07-23T11:30:10;7.55;;;6.88;;
40503;SDS011;42292;49.048;8.374;2022-07-23T11:35:39;6.80;;;6.20;;
40503;SDS011;42292;49.048;8.374;2022-07-23T11:40:47;7.20;;;6.03;;
40503;SDS011;42292;49.048;8.374;2022-07-23T11:43:22;7.20;;;6.57;;
40503;SDS011;42292;49.048;8.374;2022-07-23T11:45:52;7.30;;;6.60;;
40503;SDS011;42292;49.048;8.374;2022-07-23T11:48:25;8.20;;;6.40;;
40503;SDS011;42292;49.048;8.374;2022-07-23T11:50:53;6.90;;;6.30;;
40503;SDS011;42292;49.048;8.374;2022-07-23T11:53:26;7.57;;;6.88;;
40503;SDS011;42292;49.048;8.374;2022-07-23T11:55:53;7.40;;;6.70;;
40503;SDS011;42292;49.048;8.374;2022-07-23T11:58:20;7.10;;;6.25;;
40503;SDS011;42292;49.048;8.374;2022-07-23T12:00:48;6.63;;;6.05;;
40503;SDS011;42292;49.048;8.374;2022-07-23T12:03:15;7.82;;;7.03;;
40503;SDS011;42292;49.048;8.374;2022-07-23T12:05:41;7.50;;;6.73;;
40503;SDS011;42292;49.048;8.374;2022-07-23T12:08:07;7.32;;;6.60;;
40503;SDS011;42292;49.048;8.374;2022-07-23T12:10:42;7.32;;;6.38;;
40503;SDS011;42292;49.048;8.374;2022-07-23T12:13:12;7.68;;;6.65;;
40503;SDS011;42292;49.048;8.374;2022-07-23T12:15:41;7.53;;;6.80;;
40503;SDS011;42292;49.048;8.374;2022-07-23T12:18:10;7.30;;;6.60;;
40503;SDS011;42292;49.048;8.374;2022-07-23T12:20:38;6.88;;;6.28;;
40503;SDS011;42292;49.048;8.374;2022-07-23T12:23:07;7.40;;;6.70;;
40503;SDS011;42292;49.048;8.374;2022-07-23T12:25:35;7.78;;;7.07;;
40503;SDS011;42292;49.048;8.374;2022-07-23T12:30:39;7.13;;;6.35;;
40503;SDS011;42292;49.048;8.374;2022-07-23T12:33:06;7.07;;;6.38;;
40503;SDS011;42292;49.048;8.374;2022-07-23T12:35:38;7.40;;;6.70;;
40503;SDS011;42292;49.048;8.374;2022-07-23T12:38:17;7.15;;;6.40;;
40503;SDS011;42292;49.048;8.374;2022-07-23T12:40:50;7.53;;;6.63;;
40503;SDS011;42292;49.048;8.374;2022-07-23T12:43:24;7.25;;;6.38;;
40503;SDS011;42292;49.048;8.374;2022-07-23T12:46:05;7.53;;;6.35;;
40503;SDS011;42292;49.048;8.374;2022-07-23T12:48:33;6.80;;;5.80;;
40503;SDS011;42292;49.048;8.374;2022-07-23T12:51:04;7.63;;;6.53;;
40503;SDS011;42292;49.048;8.374;2022-07-23T12:56:14;6.30;;;5.80;;
40503;SDS011;42292;49.048;8.374;2022-07-23T13:01:37;7.22;;;6.53;;
40503;SDS011;42292;49.048;8.374;2022-07-23T13:06:38;6.77;;;6.13;;
40503;SDS011;42292;49.048;8.374;2022-07-23T13:09:29;6.72;;;6.13;;
40503;SDS011;42292;49.048;8.374;2022-07-23T13:11:59;6.28;;;5.68;;
40503;SDS011;42292;49.048;8.374;2022-07-23T13:14:25;7.28;;;5.85;;
40503;SDS011;42292;49.048;8.374;2022-07-23T13:16:53;6.53;;;5.90;;
40503;SDS011;42292;49.048;8.374;2022-07-23T13:19:21;6.10;;;5.50;;
40503;SDS011;42292;49.048;8.374;2022-07-23T13:21:50;6.75;;;6.15;;
40503;SDS011;42292;49.048;8.374;2022-07-23T13:24:15;6.30;;;5.70;;
40503;SDS011;42292;49.048;8.374;2022-07-23T13:26:46;6.50;;;5.80;;
40503;SDS011;42292;49.048;8.374;2022-07-23T13:29:14;7.43;;;6.55;;
40503;SDS011;42292;49.048;8.374;2022-07-23T13:31:40;7.60;;;6.90;;
40503;SDS011;42292;49.048;8.374;2022-07-23T13:34:08;6.30;;;5.70;;
40503;SDS011;42292;49.048;8.374;2022-07-23T13:36:38;6.78;;;6.10;;
40503;SDS011;42292;49.048;8.374;2022-07-23T13:39:08;6.45;;;5.85;;
40503;SDS011;42292;49.048;8.374;2022-07-23T13:41:37;6.18;;;5.60;;
40503;SDS011;42292;49.048;8.374;2022-07-23T13:44:05;6.20;;;5.70;;
40503;SDS011;42292;49.048;8.374;2022-07-23T13:46:31;6.65;;;5.95;;
40503;SDS011;42292;49.048;8.374;2022-07-23T13:48:56;6.27;;;5.30;;
40503;SDS011;42292;49.048;8.374;2022-07-23T13:51:24;5.90;;;5.30;;
40503;SDS011;42292;49.048;8.374;2022-07-23T13:53:50;6.55;;;5.65;;
40503;SDS011;42292;49.048;8.374;2022-07-23T13:56:19;7.35;;;5.63;;
40503;SDS011;42292;49.048;8.374;2022-07-23T13:58:45;5.82;;;5.22;;
40503;SDS011;42292;49.048;8.374;2022-07-23T14:01:15;6.18;;;5.55;;
40503;SDS011;42292;49.048;8.374;2022-07-23T14:03:41;6.75;;;5.90;;
40503;SDS011;42292;49.048;8.374;2022-07-23T14:06:06;5.90;;;5.30;;
40503;SDS011;42292;49.048;8.374;2022-07-23T14:08:32;6.85;;;5.40;;
40503;SDS011;42292;49.048;8.374;2022-07-23T14:11:00;6.23;;;5.27;;
40503;SDS011;42292;49.048;8.374;2022-07-23T14:13:28;6.10;;;5.37;;
40503;SDS011;42292;49.048;8.374;2022-07-23T14:15:56;5.70;;;5.00;;
40503;SDS011;42292;49.048;8.374;2022-07-23T14:18:22;5.60;;;4.97;;
40503;SDS011;42292;49.048;8.374;2022-07-23T14:20:49;5.45;;;4.97;;
40503;SDS011;42292;49.048;8.374;2022-07-23T14:23:17;4.77;;;4.37;;
40503;SDS011;42292;49.048;8.374;2022-07-23T14:25:43;5.00;;;4.50;;
40503;SDS011;42292;49.048;8.374;2022-07-23T14:28:08;5.30;;;4.60;;
40503;SDS011;42292;49.048;8.374;2022-07-23T14:30:34;5.75;;;4.70;;
40503;SDS011;42292;49.048;8.374;2022-07-23T14:33:00;5.43;;;4.93;;
40503;SDS011;42292;49.048;8.374;2022-07-23T14:35:31;5.70;;;5.20;;
40503;SDS011;42292;49.048;8.374;2022-07-23T14:37:56;6.33;;;5.70;;
40503;SDS011;42292;49.048;8.374;2022-07-23T14:40:24;6.57;;;5.90;;
40503;SDS011;42292;49.048;8.374;2022-07-23T14:42:49;6.57;;;5.80;;
40503;SDS011;42292;49.048;8.374;2022-07-23T14:45:15;6.37;;;5.77;;
40503;SDS011;42292;49.048;8.374;2022-07-23T14:47:41;6.53;;;5.80;;
40503;SDS011;42292;49.048;8.374;2022-07-23T14:50:09;6.30;;;5.67;;
40503;SDS011;42292;49.048;8.374;2022-07-23T14:52:34;6.67;;;5.93;;
40503;SDS011;42292;49.048;8.374;2022-07-23T14:55:00;7.20;;;5.85;;
40503;SDS011;42292;49.048;8.374;2022-07-23T14:57:25;7.20;;;5.70;;
40503;SDS011;42292;49.048;8.374;2022-07-23T14:59:53;6.22;;;5.55;;
40503;SDS011;42292;49.048;8.374;2022-07-23T15:02:19;6.13;;;5.28;;
40503;SDS011;42292;49.048;8.374;2022-07-23T15:04:44;5.47;;;4.97;;
40503;SDS011;42292;49.048;8.374;2022-07-23T15:07:13;6.13;;;5.23;;
40503;SDS011;42292;49.048;8.374;2022-07-23T15:09:38;5.57;;;5.03;;
40503;SDS011;42292;49.048;8.374;2022-07-23T15:12:06;5.35;;;4.85;;
40503;SDS011;42292;49.048;8.374;2022-07-23T15:14:34;5.97;;;5.00;;
40503;SDS011;42292;49.048;8.374;2022-07-23T15:17:00;5.10;;;4.60;;
40503;SDS011;42292;49.048;8.374;2022-07-23T15:19:25;5.50;;;4.80;;
40503;SDS011;42292;49.048;8.374;2022-07-23T15:21:51;5.70;;;4.90;;
40503;SDS011;42292;49.048;8.374;2022-07-23T15:24:17;6.38;;;5.78;;
40503;SDS011;42292;49.048;8.374;2022-07-23T15:26:43;6.53;;;5.83;;
40503;SDS011;42292;49.048;8.374;2022-07-23T15:29:08;7.15;;;5.97;;
40503;SDS011;42292;49.048;8.374;2022-07-23T15:31:36;6.50;;;5.80;;
40503;SDS011;42292;49.048;8.374;2022-07-23T15:34:02;8.88;;;5.85;;
40503;SDS011;42292;49.048;8.374;2022-07-23T15:36:30;6.28;;;5.70;;
40503;SDS011;42292;49.048;8.374;2022-07-23T15:38:55;6.03;;;5.43;;
40503;SDS011;42292;49.048;8.374;2022-07-23T15:41:21;6.35;;;5.75;;
40503;SDS011;42292;49.048;8.374;2022-07-23T15:43:49;6.22;;;5.72;;
40503;SDS011;42292;49.048;8.374;2022-07-23T15:46:22;7.05;;;6.35;;
40503;SDS011;42292;49.048;8.374;2022-07-23T15:48:48;7.07;;;6.20;;
40503;SDS011;42292;49.048;8.374;2022-07-23T15:51:14;7.90;;;6.50;;
40503;SDS011;42292;49.048;8.374;2022-07-23T15:53:40;6.18;;;5.68;;
40503;SDS011;42292;49.048;8.374;2022-07-23T15:56:07;6.30;;;5.70;;
40503;SDS011;42292;49.048;8.374;2022-07-23T15:58:33;7.40;;;5.50;;
40503;SDS011;42292;49.048;8.374;2022-07-23T16:00:59;7.10;;;5.07;;
40503;SDS011;42292;49.048;8.374;2022-07-23T16:03:28;7.07;;;5.13;;
40503;SDS011;42292;49.048;8.374;2022-07-23T16:05:57;6.68;;;5.88;;